메인 페이지
METAR-TAF:

METAR-TAF

공항 :

Ozark, 앨라배마, 미국

위도: 31-17N, 경도: 085-43W, 고도: 91m

현재 날씨관측

예보는 25분 전, 22:56시(UTC)에 발표되었습니다.
8kt
온도 24°C
습도 61%
기압 1015 hPa
시정: 16.1km
고도 18000ft 상공 구름 많음

METAR: KOZR 242256Z AUTO 18008KT 10SM BKN180 24/16 A2998 RMK AO2 SLP153 T02370155

시각: 18:21 (23:21 UTC)

예보

예보는 7 시간 21분 전, 16:00시(UTC)에 발표되었습니다.
예보 대상 시간: 24일 16시부터 25일 22시까지 (UTC)
남서6kt
시정 10km 이상
고도 14000ft 상공 구름 보통
전환 중
25일 17시부터 25일 18시까지 (UTC)
10kt, 순간 최대 풍속 15kt
시정 10km 이상
고도 4000ft 상공 구름 보통
고도 16000ft 상공 구름 많음
일시적
25일 20시부터 25일 22시까지 (UTC)
시정: 8000m
소나기

TAF: KOZR 241600Z 2416/2522 23006KT 9999 SCT140 QNH2992INS BECMG 2517/2518 18010G15KT 9999 SCT040 BKN160 QNH2988INS TEMPO 2520/2522 8000 SHRA TX27/2421Z TN15/2510Z

4,000개 이상의 공항 관측 자료 및 예보 (METAR 및 TAF 보고).

지도상에서 검색 가능한 기상관측소가 노란 점과 빨간 점으로 표시되어 있습니다.

기상관측소 명을 보려면 표시 위로 마우스를 이동하세요.

날씨 관측과 예보를 보려면 클릭하세요.

지도 변경 : 확대하려면 엑스 표시가 있는 녹색 버튼, 축소하려면 빼기 표시가 있는 녹색 버튼, 다음 페이지의 지도를 보려면 녹색 화살표를 클릭하세요.


METAR-TAF: